Accueil
METAR-TAF:

METAR-TAF

Aéroports :

Schenectady County Airport

Schenectady, New York, États-Unis

latitude: 42-51N, longitude: 073-56W, altitude: 115 m

Observation

Le bulletin a été fait il y a 53 minutes, à 16:54 UTC
Vent 13 kt de ouest avec des rafales jusqu'à 31 kt
Température 6°C
Humidité 61%
Pression 991 hPa
Visibilité: 24.1 km
Ciel couvert à une hauteur de 3100 ft

METAR: KSCH 101654Z 28013G31KT 15SM OVC031 06/M01 A2927

Heure: 13:47 (17:47 UTC)


TAF: absent

Observations et prévisions météorologiques de plus de 4000 aéroports (messages METAR et TAF).

Les stations disponibles sont représentées par des disques jaunes et rouges sur la carte.

Passer la souris dessus pour voir le nom de la station.

Cliquer dessus pour voir les observations et prévisions météorologiques.

Pour changer de carte: cliquez sur les boutons verts avec une croix noire pour zoomer, sur le bouton vert avec un tiret pour effectuer un zoom arrière, ou sur les flèches vertes pour les cartes adjacentes.


METAR-TAF: